Martin, GA

11:03 AM EDT on August 27, 2014 (GMT -0400)
TUGALOO RIVER | Change Station
CLOSE
Current Station
Personal Weather Stations
Location: OCONEE, SC
Elevation: 665 ft
Nearby Weather Stations

Elev 665 ft 34.58 °N, 83.14 °W | Updated 14 seconds ago

맑음
맑음
77.5 °F
Feels Like 79 °F
N
0.0
바람 Variable 바람 from 동남동
Gusts 0.0 mph

오늘
High -- | Low -- °F
--% Chance of Precip.
어제
High -- | Low -- °F
Precip. -- 인치
7:02 AM 8:05 PM
초승달, 4% visible
기압 30.15 인치
가시도 10.0 마일
구름 맑음
열지수 79 °F
이슬점 65 °F
습도 66%
Rainfall 0.00 인치
Snow Depth Not available.
자외선 지수 7 out of 12
Pollen 8.30 out of 12
에어 품질 Not available.
Flu Activity Not available.
METAR KTOC 271455Z AUTO 13003KT 10SM CLR 26/17 A3015 RMK AO2 T02570174

More Conditions Fewer Conditions

기압 30.15 인치
가시도 10.0 마일
구름 맑음
열지수 79 °F
이슬점 65 °F
습도 66%
Rainfall 0.00 인치
Snow Depth Not available.
자외선 지수 7 out of 12
Pollen 8.30 out of 12
에어 품질 Not available.
Flu Activity Not available.
METAR KTOC 271455Z AUTO 13003KT 10SM CLR 26/17 A3015 RMK AO2 T02570174

More Conditions Fewer Conditions

10-Day Weather Forecast

Almanac

천문

Aug. 27, 2014 Rise Set
Actual Time 07:02 EDT 20:05 EDT
Civil Twilight 06:36 EDT 20:31 EDT
Nautical Twilight 06:05 EDT 21:02 EDT
Astronomical Twilight 05:33 EDT 21:33 EDT
Moon 08:50 EDT 21:04 EDT
Length Of Visible Light 13h 55m
낮 길이
13h 03m
Tomorrow will be 2m 2s shorter.
초승달, 4% of the Moon is Illuminated
오늘
초승달
Sep 2
상현달
Sep 8
보름달
Sep 15
하현달
Sep 24
New

Today's Extremes

State Highs State Lows

Community

WunderPhotos

Upload Photos

1,747,703 photos uploaded!

Nearby

Snow Depth

Station Depth Elevation
No new snow has been reported.

Earthquake Activity

City Distance Mag. Time & Date
No recent earthquake activity has been reported nearby.
Minimum magnitude displayed is 2.5.

Coastal Water Temperatures

장소 기온
No Stations Reporting

Nearby Weather Stations